TimeMST,TemperatureF,Dew PointF,Humidity,Sea Level PressureIn,VisibilityMPH,Wind Direction,Wind SpeedMPH,Gust SpeedMPH,PrecipitationIn,Events,Conditions,WindDirDegrees,DateUTC
12:00 AM,35.1,25.9,69,30.05,-9999.0,West,12.7,-,N/A,,Unknown,280,2013-02-16 07:00:00
1:00 AM,34.7,26.1,71,30.03,-9999.0,West,11.5,-,N/A,,Unknown,280,2013-02-16 08:00:00
2:00 AM,32.9,25.7,75,30.03,-9999.0,WNW,9.2,-,N/A,,Unknown,290,2013-02-16 09:00:00
3:00 AM,35.2,26.1,69,30.02,-9999.0,West,12.7,-,N/A,,Unknown,270,2013-02-16 10:00:00
4:00 AM,37.6,25.0,60,30.00,-9999.0,West,17.3,-,N/A,,Unknown,270,2013-02-16 11:00:00
5:00 AM,36,25,53,29.99,,West,16.1,,,,,270,2013-02-16 12:00:00
5:00 AM,36.0,25.2,65,29.99,-9999.0,West,16.1,-,N/A,,Unknown,270,2013-02-16 12:00:00
6:00 AM,31.5,24.4,75,30.00,-9999.0,West,10.4,-,N/A,,Unknown,280,2013-02-16 13:00:00
7:00 AM,31.5,26.2,81,29.99,-9999.0,West,10.4,-,N/A,,Unknown,280,2013-02-16 14:00:00
8:00 AM,34.7,26.1,71,29.98,-9999.0,NNW,4.6,-,N/A,,Unknown,340,2013-02-16 15:00:00
9:00 AM,43.3,26.6,52,29.94,-9999.0,West,12.7,19.6,N/A,,Unknown,260,2013-02-16 16:00:00
10:00 AM,45.9,26.4,47,29.93,-9999.0,West,15.0,20.7,N/A,,Unknown,280,2013-02-16 17:00:00
11:00 AM,51,27,26,29.90,,West,16.1,,,,,260,2013-02-16 18:00:00
11:00 AM,50.9,26.6,39,29.90,-9999.0,West,16.1,23.0,N/A,,Unknown,260,2013-02-16 18:00:00
12:00 PM,51.8,28.0,40,29.88,-9999.0,West,19.6,25.3,N/A,,Unknown,260,2013-02-16 19:00:00
1:00 PM,49.6,28.0,43,29.86,-9999.0,West,18.4,25.3,N/A,,Unknown,260,2013-02-16 20:00:00
2:00 PM,50.0,27.9,42,29.80,-9999.0,West,18.4,27.6,N/A,,Unknown,260,2013-02-16 21:00:00
3:00 PM,48.2,29.5,48,29.78,-9999.0,WSW,15.0,23.0,N/A,,Unknown,240,2013-02-16 22:00:00
4:00 PM,45.5,30.0,55,29.78,-9999.0,WSW,17.3,-,N/A,,Unknown,250,2013-02-16 23:00:00
5:00 PM,48,29,35,29.76,,WSW,24.2,,,,,240,2013-02-17 00:00:00
6:00 PM,41.4,27.9,59,29.77,-9999.0,WSW,12.7,-,N/A,,Unknown,240,2013-02-17 01:00:00
7:00 PM,39.2,28.9,67,29.75,-9999.0,SW,8.1,17.3,N/A,,Unknown,230,2013-02-17 02:00:00
8:00 PM,38.7,27.9,65,29.70,-9999.0,WSW,10.4,-,N/A,,Unknown,250,2013-02-17 03:00:00
9:00 PM,37.6,28.4,69,29.69,-9999.0,West,15.0,-,N/A,,Unknown,270,2013-02-17 04:00:00
10:00 PM,36.0,28.8,75,29.66,-9999.0,WSW,11.5,-,N/A,,Unknown,250,2013-02-17 05:00:00
11:00 PM,34,29,75,29.66,,West,10.4,,,,,270,2013-02-17 06:00:00
11:00 PM,33.8,28.9,82,29.66,-9999.0,West,10.4,-,N/A,,Unknown,270,2013-02-17 06:00:00